Time;durP1;ratioP1;P1;durP2;ratioP2;P2;SDS_P1;SDS_P2;PMS_P1;PMS_P2;Temp;Humidity;BMP_temperature;BMP_pressure;BME280_temperature;BME280_humidity;BME280_pressure;Samples;Min_cycle;Max_cycle;Signal;HPM_P1;HPM_P2
2022/08/28 00:00:45;;;;;;;;;8.00;7.50;;;;;21.80;41.24;101094.16;5075158;28;66934;-57
2022/08/28 00:03:12;;;;;;;;;9.75;8.50;;;;;21.77;40.94;101089.03;5065207;27;45519;-58
2022/08/28 00:05:38;;;;;;;;;9.00;7.75;;;;;21.76;41.23;101089.13;5076681;28;45272;-57
2022/08/28 00:08:04;;;;;;;;;7.25;7.00;;;;;21.73;41.48;101095.53;5080360;27;45328;-57
2022/08/28 00:10:31;;;;;;;;;8.75;8.00;;;;;21.69;41.28;101087.84;5057234;28;45256;-56
2022/08/28 00:12:56;;;;;;;;;7.50;6.75;;;;;21.67;41.29;101087.09;5060020;28;45464;-57
2022/08/28 00:15:32;;;;;;;;;8.50;6.75;;;;;21.63;41.31;101089.13;5075559;28;45368;-57
2022/08/28 00:17:58;;;;;;;;;6.00;6.00;;;;;21.58;41.74;101089.44;5069613;27;46146;-57
2022/08/28 00:20:25;;;;;;;;;7.75;7.75;;;;;21.56;41.96;101082.50;5072558;27;46045;-57
2022/08/28 00:22:51;;;;;;;;;4.25;4.00;;;;;21.55;41.92;101083.47;5076586;27;45554;-56
2022/08/28 00:25:19;;;;;;;;;9.00;7.75;;;;;21.53;41.69;101085.38;5065818;27;45621;-58
2022/08/28 00:27:53;;;;;;;;;8.25;6.00;;;;;21.48;42.34;101079.50;5072730;27;47164;-57
2022/08/28 00:30:26;;;;;;;;;2.00;2.00;;;;;21.39;42.03;101086.28;5066920;27;45623;-58
2022/08/28 00:32:53;;;;;;;;;7.00;6.75;;;;;21.34;42.78;101085.75;5067423;27;45454;-57
2022/08/28 00:35:19;;;;;;;;;6.25;6.00;;;;;21.29;42.45;101079.88;5050987;28;45424;-56
2022/08/28 00:37:45;;;;;;;;;7.50;5.50;;;;;21.26;42.62;101086.22;5060787;28;46363;-57
2022/08/28 00:40:14;;;;;;;;;5.00;5.00;;;;;21.21;42.73;101083.88;5054670;28;45319;-58
2022/08/28 00:42:41;;;;;;;;;5.00;5.00;;;;;21.16;42.55;101086.00;5054974;28;45253;-57
2022/08/28 00:45:07;;;;;;;;;6.50;5.00;;;;;21.15;42.85;101097.59;5074578;27;45466;-57
2022/08/28 00:47:33;;;;;;;;;6.75;5.00;;;;;21.12;42.65;101089.78;5072948;27;45938;-57
2022/08/28 00:50:00;;;;;;;;;8.00;6.00;;;;;21.10;42.70;101094.38;5074651;28;45412;-58
2022/08/28 00:52:26;;;;;;;;;9.00;6.75;;;;;21.04;43.55;101086.81;5053108;28;45222;-56
2022/08/28 00:55:00;;;;;;;;;5.50;5.50;;;;;20.99;43.52;101086.25;5056149;28;57837;-56
2022/08/28 00:57:43;;;;;;;;;4.50;4.50;;;;;20.93;43.81;101089.28;5033750;28;47992;-56
2022/08/28 01:00:16;;;;;;;;;7.50;6.50;;;;;20.84;43.81;101090.72;5056459;28;45241;-57
2022/08/28 01:02:42;;;;;;;;;6.00;5.00;;;;;20.79;44.47;101091.06;5077679;27;45710;-57
2022/08/28 01:05:08;;;;;;;;;6.00;4.00;;;;;20.72;43.95;101102.19;5062082;28;45755;-57
2022/08/28 01:07:35;;;;;;;;;6.25;5.00;;;;;20.66;44.22;101087.47;5074805;27;46531;-57
2022/08/28 01:10:01;;;;;;;;;7.00;4.75;;;;;20.64;44.61;101092.03;5029435;28;45432;-57
2022/08/28 01:12:29;;;;;;;;;10.00;7.25;;;;;20.61;44.53;101090.44;5078317;27;64112;-57
2022/08/28 01:14:58;;;;;;;;;5.50;4.50;;;;;20.59;44.93;101094.09;5080331;27;45433;-57
2022/08/28 01:17:27;;;;;;;;;7.00;5.75;;;;;20.55;45.24;101087.25;5066841;27;46210;-57
2022/08/28 01:19:57;;;;;;;;;6.25;6.25;;;;;20.53;44.73;101091.84;5048519;28;45356;-57
2022/08/28 01:22:43;;;;;;;;;7.50;5.25;;;;;20.52;45.25;101098.09;5058836;28;45307;-57
2022/08/28 01:25:15;;;;;;;;;6.75;5.50;;;;;20.48;45.01;101098.28;5056957;28;45643;-57
2022/08/28 01:27:41;;;;;;;;;7.00;6.00;;;;;20.48;44.96;101094.75;5059160;27;45433;-57
2022/08/28 01:30:12;;;;;;;;;8.00;6.00;;;;;20.47;45.41;101091.25;5071181;27;71574;-56
2022/08/28 01:32:42;;;;;;;;;6.00;5.50;;;;;20.45;45.11;101090.50;5075600;27;45266;-56
2022/08/28 01:35:11;;;;;;;;;5.50;5.25;;;;;20.42;45.20;101084.53;5075043;27;45564;-56
2022/08/28 01:37:36;;;;;;;;;6.00;4.50;;;;;20.41;45.82;101073.03;5078945;27;45423;-55
2022/08/28 01:40:03;;;;;;;;;8.75;7.00;;;;;20.38;45.85;101086.53;5066677;27;45426;-57
2022/08/28 01:42:29;;;;;;;;;6.50;5.50;;;;;20.33;46.35;101075.34;5074580;27;45428;-55
2022/08/28 01:44:56;;;;;;;;;6.25;5.25;;;;;20.30;45.65;101079.00;5074779;27;54890;-56
2022/08/28 01:47:21;;;;;;;;;7.50;4.00;;;;;20.29;45.61;101073.78;5071824;27;45408;-56
2022/08/28 01:49:47;;;;;;;;;6.50;5.25;;;;;20.29;45.88;101074.66;5072924;27;45475;-55
2022/08/28 01:52:12;;;;;;;;;5.00;5.00;;;;;20.30;46.13;101064.88;5071940;27;45359;-58
2022/08/28 01:54:38;;;;;;;;;5.00;5.00;;;;;20.27;46.00;101068.59;5056451;28;64109;-57
2022/08/28 01:57:04;;;;;;;;;4.75;4.75;;;;;20.24;46.03;101068.78;5047869;28;46464;-57
2022/08/28 01:59:29;;;;;;;;;5.00;5.00;;;;;20.21;46.20;101060.16;5073567;27;45489;-58
2022/08/28 02:01:54;;;;;;;;;6.75;6.25;;;;;20.25;46.01;101061.66;5053574;28;48759;-57
2022/08/28 02:04:20;;;;;;;;;7.00;6.50;;;;;20.24;46.06;101065.28;5071806;27;45514;-57
2022/08/28 02:06:45;;;;;;;;;6.00;6.00;;;;;20.25;46.24;101070.47;5074993;28;46088;-56
2022/08/28 02:09:11;;;;;;;;;5.50;5.00;;;;;20.26;46.18;101077.50;5071618;27;45534;-57
2022/08/28 02:11:38;;;;;;;;;8.00;6.00;;;;;20.28;46.18;101088.06;5067483;27;67021;-57
2022/08/28 02:14:03;;;;;;;;;4.75;4.50;;;;;20.29;45.98;101077.31;5072904;27;45345;-57
2022/08/28 02:16:28;;;;;;;;;5.75;4.50;;;;;20.30;46.05;101079.00;5073976;27;45283;-57
2022/08/28 02:18:54;;;;;;;;;7.75;7.50;;;;;20.33;46.31;101071.78;5076187;27;73152;-57
2022/08/28 02:21:20;;;;;;;;;7.25;5.25;;;;;20.30;46.39;101071.03;5076234;28;45490;-57
2022/08/28 02:23:45;;;;;;;;;9.25;6.00;;;;;20.25;46.08;101069.63;5073590;27;70511;-56
2022/08/28 02:26:12;;;;;;;;;8.75;5.00;;;;;20.21;46.16;101078.75;5068587;27;46693;-57
2022/08/28 02:28:37;;;;;;;;;6.00;5.00;;;;;20.20;46.49;101074.38;5072415;27;45652;-56
2022/08/28 02:31:06;;;;;;;;;10.00;7.50;;;;;20.19;46.22;101081.50;5075143;27;62503;-58
2022/08/28 02:33:32;;;;;;;;;7.50;7.00;;;;;20.19;46.88;101081.50;5055143;28;45240;-58
2022/08/28 02:35:57;;;;;;;;;6.75;6.00;;;;;20.18;46.75;101090.41;5070516;27;46643;-58
2022/08/28 02:38:23;;;;;;;;;4.75;4.75;;;;;20.16;47.03;101081.69;5077847;27;45399;-58
2022/08/28 02:40:48;;;;;;;;;6.50;6.00;;;;;20.13;47.00;101083.69;5057750;28;45278;-58
2022/08/28 02:43:13;;;;;;;;;5.25;5.25;;;;;20.10;46.64;101077.59;5077979;27;49674;-57
2022/08/28 02:45:39;;;;;;;;;5.75;4.50;;;;;20.07;46.53;101076.94;5074322;27;59149;-58
2022/08/28 02:48:04;;;;;;;;;7.00;5.25;;;;;20.06;46.90;101080.53;5064989;27;73056;-56
2022/08/28 02:50:30;;;;;;;;;5.00;4.00;;;;;20.04;47.20;101075.34;5079857;27;45289;-58
2022/08/28 02:52:56;;;;;;;;;6.00;5.00;;;;;20.00;47.11;101071.13;5080845;27;45502;-59
2022/08/28 02:55:23;;;;;;;;;8.75;5.25;;;;;20.00;47.27;101076.47;5077796;27;45375;-58
2022/08/28 02:57:49;;;;;;;;;4.00;4.00;;;;;20.02;47.26;101071.06;5073723;27;45773;-58
2022/08/28 03:00:21;;;;;;;;;5.50;5.25;;;;;20.02;47.05;101073.72;5066839;27;45621;-59
2022/08/28 03:02:47;;;;;;;;;9.25;6.00;;;;;20.01;47.00;101077.31;5085102;27;45573;-57
2022/08/28 03:05:15;;;;;;;;;6.00;6.00;;;;;20.01;47.12;101070.22;5077896;27;46573;-58
2022/08/28 03:07:41;;;;;;;;;8.50;6.50;;;;;20.00;47.25;101065.81;5078463;27;45328;-57
2022/08/28 03:10:08;;;;;;;;;6.00;4.50;;;;;20.00;47.11;101068.47;5050614;28;45574;-58
2022/08/28 03:12:34;;;;;;;;;6.75;4.00;;;;;19.99;47.44;101063.25;5067338;27;45285;-57
2022/08/28 03:14:59;;;;;;;;;5.50;5.00;;;;;20.00;48.04;101064.97;5077714;27;46294;-57
2022/08/28 03:17:24;;;;;;;;;7.00;5.50;;;;;19.96;48.01;101061.66;5080200;27;68440;-56
2022/08/28 03:19:50;;;;;;;;;6.75;6.75;;;;;19.91;47.51;101059.28;5077938;27;61141;-58
2022/08/28 03:23:24;;;;;;;;;6.50;4.00;;;;;19.89;47.65;101063.00;5054349;27;45506;-59
2022/08/28 03:25:08;;;;;;;;;10.00;6.00;;;;;19.88;47.54;101063.91;5072622;27;45268;-58
2022/08/28 03:27:33;;;;;;;;;8.75;5.75;;;;;19.88;47.59;101058.59;5081676;27;45842;-57
2022/08/28 03:29:58;;;;;;;;;7.00;6.50;;;;;19.90;48.09;101064.69;5075745;27;45320;-58
2022/08/28 03:32:25;;;;;;;;;8.25;5.00;;;;;19.88;47.88;101061.25;5069467;27;45482;-57
2022/08/28 03:34:52;;;;;;;;;6.25;6.00;;;;;19.84;47.89;101054.44;5066688;27;46166;-57
2022/08/28 03:37:18;;;;;;;;;9.50;6.00;;;;;19.85;48.57;101067.63;5068196;27;45387;-57
2022/08/28 03:39:43;;;;;;;;;6.00;6.00;;;;;19.82;47.96;101069.63;5069654;27;45464;-57
2022/08/28 03:42:09;;;;;;;;;4.25;4.25;;;;;19.80;48.29;101066.22;5072934;27;65333;-58
2022/08/28 03:44:37;;;;;;;;;6.75;3.75;;;;;19.78;48.27;101068.06;5064093;27;45414;-58
2022/08/28 03:47:03;;;;;;;;;6.00;6.00;;;;;19.75;48.71;101063.81;5051466;28;45454;-57
2022/08/28 03:49:29;;;;;;;;;7.00;7.00;;;;;19.68;48.46;101067.75;5070816;27;45447;-57
2022/08/28 03:51:55;;;;;;;;;7.50;5.50;;;;;19.64;48.26;101063.59;5072315;27;45419;-57
2022/08/28 03:54:20;;;;;;;;;7.75;5.00;;;;;19.62;48.73;101068.97;5072888;27;46232;-57
2022/08/28 03:56:46;;;;;;;;;7.00;5.00;;;;;19.59;48.81;101069.16;5071953;27;71460;-57
2022/08/28 03:59:11;;;;;;;;;8.50;6.00;;;;;19.57;48.50;101070.22;5069157;27;45379;-57
2022/08/28 04:01:37;;;;;;;;;6.00;6.00;;;;;19.54;49.04;101068.56;5054718;28;68142;-57
2022/08/28 04:04:03;;;;;;;;;7.00;6.00;;;;;19.52;48.82;101065.16;5068199;27;45315;-57
2022/08/28 04:06:28;;;;;;;;;7.00;6.75;;;;;19.52;48.61;101065.16;5041638;28;45941;-55
2022/08/28 04:08:54;;;;;;;;;8.00;6.00;;;;;19.52;49.43;101067.81;5072862;27;45295;-56
2022/08/28 04:11:20;;;;;;;;;5.50;5.50;;;;;19.51;49.12;101068.75;5072183;27;45384;-57
2022/08/28 04:13:45;;;;;;;;;6.00;5.50;;;;;19.51;48.93;101072.28;5072479;27;45373;-56
2022/08/28 04:16:12;;;;;;;;;6.50;6.50;;;;;19.48;49.36;101069.81;5069960;27;74592;-56
2022/08/28 04:18:40;;;;;;;;;7.25;6.00;;;;;19.47;49.28;101073.38;5071123;27;45371;-56
2022/08/28 04:21:11;;;;;;;;;8.75;5.00;;;;;19.45;49.25;101067.31;5075808;27;45557;-55
2022/08/28 04:23:42;;;;;;;;;8.00;7.00;;;;;19.48;49.19;101069.81;5073487;28;45354;-56
2022/08/28 04:26:10;;;;;;;;;8.25;7.25;;;;;19.50;48.66;101070.56;5057200;27;45407;-55
2022/08/28 04:28:35;;;;;;;;;4.00;4.00;;;;;19.51;49.19;101074.06;5067929;27;45530;-58
2022/08/28 04:31:01;;;;;;;;;8.25;7.50;;;;;19.53;49.24;101075.69;5070317;27;45542;-58
2022/08/28 04:33:27;;;;;;;;;7.25;5.75;;;;;19.53;49.37;101073.03;5069706;27;46111;-56
2022/08/28 04:35:53;;;;;;;;;6.50;5.25;;;;;19.51;49.77;101074.94;5078510;28;45233;-56
2022/08/28 04:38:19;;;;;;;;;9.75;5.00;;;;;19.49;49.87;101073.31;5076547;27;45562;-56
2022/08/28 04:40:44;;;;;;;;;6.00;5.00;;;;;19.44;49.44;101070.94;5072654;27;45597;-55
2022/08/28 04:43:10;;;;;;;;;5.00;5.00;;;;;19.41;49.72;101072.91;5057618;28;45800;-55
2022/08/28 04:45:40;;;;;;;;;6.50;5.00;;;;;19.41;49.67;101079.06;5073885;27;45403;-56
2022/08/28 04:48:05;;;;;;;;;6.00;4.00;;;;;19.42;49.79;101080.75;5071751;27;45686;-57
2022/08/28 04:50:31;;;;;;;;;5.75;5.75;;;;;19.42;49.89;101091.38;5077558;27;45466;-57
2022/08/28 04:52:57;;;;;;;;;6.75;5.75;;;;;19.39;50.24;101086.28;5073861;27;45566;-56
2022/08/28 04:55:22;;;;;;;;;11.00;6.00;;;;;19.34;50.45;101091.84;5073984;27;45212;-56
2022/08/28 04:57:48;;;;;;;;;7.25;6.00;;;;;19.33;50.83;101091.91;5060577;28;45688;-56
2022/08/28 05:00:14;;;;;;;;;8.50;6.75;;;;;19.29;50.82;101080.63;5078273;27;45245;-57
2022/08/28 05:02:39;;;;;;;;;12.00;6.50;;;;;19.23;50.40;101090.75;5040877;28;46734;-57
2022/08/28 05:05:04;;;;;;;;;6.00;6.00;;;;;19.18;50.73;101101.63;5073670;27;64514;-57
2022/08/28 05:07:30;;;;;;;;;7.75;5.00;;;;;19.18;50.43;101100.78;5074182;27;45373;-56
2022/08/28 05:09:55;;;;;;;;;9.50;7.25;;;;;19.18;50.67;101106.94;5043292;28;45462;-58
2022/08/28 05:12:21;;;;;;;;;5.00;5.00;;;;;19.16;50.70;101107.03;5071830;27;45431;-56
2022/08/28 05:14:48;;;;;;;;;5.00;5.00;;;;;19.17;50.84;101099.91;5043373;27;45364;-57
2022/08/28 05:17:14;;;;;;;;;7.75;5.25;;;;;19.16;51.34;101107.03;5074787;27;47112;-57
2022/08/28 05:19:40;;;;;;;;;5.50;4.25;;;;;19.16;51.10;101111.47;5059909;28;45423;-57
2022/08/28 05:22:06;;;;;;;;;7.75;7.50;;;;;19.14;50.88;101108.03;5064194;27;46092;-57
2022/08/28 05:24:31;;;;;;;;;5.00;5.00;;;;;19.12;51.04;101112.59;5069426;27;60224;-57
2022/08/28 05:26:56;;;;;;;;;9.00;6.50;;;;;19.08;50.88;101114.56;5052235;28;56460;-56
2022/08/28 05:29:22;;;;;;;;;5.50;4.50;;;;;19.08;51.21;101113.72;5070854;27;62694;-57
2022/08/28 05:31:47;;;;;;;;;7.25;5.25;;;;;19.07;51.02;101118.16;5067141;27;45416;-56
2022/08/28 05:34:14;;;;;;;;;8.00;5.75;;;;;19.08;50.77;101119.84;5062256;27;45547;-55
2022/08/28 05:36:40;;;;;;;;;6.00;4.25;;;;;19.10;51.83;101125.09;5053323;28;45492;-56
2022/08/28 05:39:08;;;;;;;;;1.25;0.75;;;;;19.08;52.34;101116.34;5069641;27;46626;-56
2022/08/28 05:41:35;;;;;;;;;6.00;4.25;;;;;19.07;51.38;101123.47;5080050;27;45459;-55
2022/08/28 05:44:04;;;;;;;;;7.25;5.00;;;;;19.07;51.84;101133.19;5056255;28;45467;-56
2022/08/28 05:46:30;;;;;;;;;7.00;5.75;;;;;19.04;51.64;101128.94;5055711;28;45468;-55
2022/08/28 05:48:56;;;;;;;;;7.00;4.75;;;;;19.02;51.51;101136.13;5082132;27;45438;-56
2022/08/28 05:51:25;;;;;;;;;7.00;5.00;;;;;19.01;51.58;101126.44;5059015;28;46040;-57
2022/08/28 05:53:52;;;;;;;;;9.00;6.50;;;;;19.04;51.63;101131.59;5057508;28;45337;-56
2022/08/28 05:56:20;;;;;;;;;6.00;6.00;;;;;19.03;51.59;101137.81;5060888;28;45319;-58
2022/08/28 05:58:46;;;;;;;;;7.00;5.50;;;;;19.03;52.44;101136.97;5045896;28;45697;-56
2022/08/28 06:01:21;;;;;;;;;5.75;5.00;;;;;19.00;52.01;101131.84;5060173;28;46143;-56
2022/08/28 06:03:53;;;;;;;;;6.75;5.00;;;;;19.00;51.70;101138.03;5061525;28;45545;-61
2022/08/28 06:06:20;;;;;;;;;8.25;7.00;;;;;19.01;51.97;101130.91;5058791;28;45253;-56
2022/08/28 06:08:45;;;;;;;;;6.25;6.00;;;;;19.00;52.48;101126.53;5081607;27;45391;-56
2022/08/28 06:11:11;;;;;;;;;6.50;5.25;;;;;18.96;52.47;101132.03;5049932;28;45495;-57
2022/08/28 06:13:37;;;;;;;;;6.50;5.25;;;;;18.94;51.95;101128.59;5058508;28;45607;-56
2022/08/28 06:16:03;;;;;;;;;6.00;6.00;;;;;18.95;52.33;101134.78;5070447;27;45501;-56
2022/08/28 06:18:29;;;;;;;;;7.00;6.75;;;;;18.95;52.96;101127.66;5073975;27;45318;-56
2022/08/28 06:20:54;;;;;;;;;5.25;5.25;;;;;18.96;52.73;101131.16;5072200;27;46947;-56
2022/08/28 06:23:21;;;;;;;;;9.25;6.00;;;;;18.98;52.85;101139.88;5068172;28;47017;-56
2022/08/28 06:25:49;;;;;;;;;6.75;6.00;;;;;18.96;52.52;101139.13;5070735;28;45234;-54
2022/08/28 06:28:17;;;;;;;;;9.25;6.75;;;;;18.95;52.37;101140.06;5056051;28;45298;-57
2022/08/28 06:30:43;;;;;;;;;8.50;6.00;;;;;18.95;52.75;101143.56;5052329;28;45551;-57
2022/08/28 06:33:09;;;;;;;;;8.50;6.00;;;;;18.94;52.63;101135.69;5071821;28;45421;-56
2022/08/28 06:35:40;;;;;;;;;7.75;6.25;;;;;18.93;52.64;101137.50;5057101;28;45429;-56
2022/08/28 06:38:06;;;;;;;;;7.00;6.25;;;;;18.91;52.86;101135.84;5048845;28;45258;-55
2022/08/28 06:40:31;;;;;;;;;6.00;5.00;;;;;18.91;52.67;101144.69;5040203;27;48196;-56
2022/08/28 06:42:56;;;;;;;;;6.25;5.50;;;;;18.91;53.21;101142.03;5059423;28;45346;-56
2022/08/28 06:45:22;;;;;;;;;9.00;8.00;;;;;18.89;53.68;101138.63;5067555;28;59175;-57
2022/08/28 06:47:47;;;;;;;;;7.25;6.25;;;;;18.89;53.41;101141.28;5066498;27;65747;-57
2022/08/28 06:50:12;;;;;;;;;7.00;5.25;;;;;18.89;54.06;101145.69;5070443;27;49911;-57
2022/08/28 06:52:38;;;;;;;;;4.00;4.00;;;;;18.88;53.30;101150.16;5057010;28;45393;-56
2022/08/28 06:55:04;;;;;;;;;9.00;6.50;;;;;18.90;53.86;101139.47;5057995;27;45320;-56
2022/08/28 06:57:30;;;;;;;;;6.00;5.00;;;;;18.87;53.75;101140.47;5054031;28;45602;-55
2022/08/28 06:59:57;;;;;;;;;8.25;7.00;;;;;18.89;54.15;101143.94;5043138;28;47174;-57
2022/08/28 07:02:22;;;;;;;;;7.25;6.75;;;;;18.92;53.38;101148.19;5040492;28;45972;-57
2022/08/28 07:04:52;;;;;;;;;6.50;5.00;;;;;18.97;53.72;101146.16;5060306;28;45279;-56
2022/08/28 07:07:18;;;;;;;;;8.75;7.50;;;;;19.01;53.83;101144.19;5078573;27;45494;-54
2022/08/28 07:09:44;;;;;;;;;8.25;5.00;;;;;19.05;53.44;101138.63;5044661;27;45616;-56
2022/08/28 07:12:09;;;;;;;;;9.50;6.00;;;;;19.08;53.84;101149.03;5037510;28;45493;-55
2022/08/28 07:14:36;;;;;;;;;5.00;4.50;;;;;19.13;53.19;101151.44;5060569;28;66537;-56
2022/08/28 07:17:02;;;;;;;;;5.75;5.00;;;;;19.17;52.92;101147.66;5065250;28;46751;-56
2022/08/28 07:19:28;;;;;;;;;8.25;6.00;;;;;19.19;53.70;101143.13;5050933;28;46226;-56
2022/08/28 07:21:54;;;;;;;;;8.50;5.75;;;;;19.22;53.54;101156.22;5061653;27;45274;-56
2022/08/28 07:24:19;;;;;;;;;5.50;5.00;;;;;19.23;53.08;101157.94;5048621;27;45561;-55
2022/08/28 07:26:46;;;;;;;;;6.25;5.00;;;;;19.25;53.11;101161.38;5058148;28;45441;-56
2022/08/28 07:29:13;;;;;;;;;6.50;6.00;;;;;19.29;53.13;101164.69;5039639;27;48497;-56
2022/08/28 07:31:44;;;;;;;;;7.50;6.25;;;;;19.35;52.82;101165.22;5068546;27;45329;-57
2022/08/28 07:34:11;;;;;;;;;6.00;6.00;;;;;19.45;52.84;101154.06;5032775;28;45541;-55
2022/08/28 07:36:37;;;;;;;;;9.00;7.50;;;;;19.54;52.70;101158.84;5067192;27;45447;-56
2022/08/28 07:39:04;;;;;;;;;7.50;7.00;;;;;19.59;52.64;101158.59;5052252;28;45490;-58
2022/08/28 07:41:31;;;;;;;;;6.50;5.25;;;;;19.66;52.56;101159.94;5070561;27;45790;-54
2022/08/28 07:46:41;;;;;;;;;5.75;5.75;;;;;19.82;52.35;101165.22;5071705;27;45319;-56
2022/08/28 07:49:08;;;;;;;;;8.50;6.50;;;;;19.87;51.86;101164.00;5060709;28;45234;-56
2022/08/28 07:51:33;;;;;;;;;8.00;7.00;;;;;19.94;51.92;101174.25;5075365;27;45275;-58
2022/08/28 07:53:59;;;;;;;;;7.50;7.50;;;;;19.98;51.69;101168.69;5077638;27;45486;-57
2022/08/28 07:56:26;;;;;;;;;7.75;7.50;;;;;20.03;51.82;101169.25;5062685;28;45473;-56
2022/08/28 07:58:51;;;;;;;;;7.25;6.50;;;;;20.11;51.54;101174.09;5070714;27;45509;-57
2022/08/28 08:01:17;;;;;;;;;8.50;5.50;;;;;20.17;51.66;101175.53;5075182;28;45399;-56
2022/08/28 08:03:43;;;;;;;;;12.75;8.50;;;;;20.23;51.31;101172.53;5060769;28;45336;-56
2022/08/28 08:06:09;;;;;;;;;8.25;6.25;;;;;20.29;51.61;101174.78;5073083;27;45929;-57
2022/08/28 08:08:35;;;;;;;;;10.75;8.00;;;;;20.35;51.21;101178.91;5061183;28;46238;-56
2022/08/28 08:11:07;;;;;;;;;8.00;7.00;;;;;20.39;51.22;101165.31;5073553;27;45233;-58
2022/08/28 08:13:35;;;;;;;;;8.25;7.00;;;;;20.43;51.31;101168.63;5045908;28;45286;-56
2022/08/28 08:16:18;;;;;;;;;3.75;3.75;;;;;20.47;50.82;101176.34;5070511;28;45460;-57
2022/08/28 08:18:44;;;;;;;;;9.75;7.25;;;;;20.51;50.88;101171.69;5072884;27;45502;-56
2022/08/28 08:21:12;;;;;;;;;7.00;6.00;;;;;20.56;51.04;101168.75;5057871;28;46005;-56
2022/08/28 08:23:38;;;;;;;;;9.25;7.50;;;;;20.55;50.76;101164.38;5050439;28;45355;-57
2022/08/28 08:26:07;;;;;;;;;8.50;7.00;;;;;20.62;50.72;101176.38;5073727;28;45558;-57
2022/08/28 08:28:35;;;;;;;;;8.50;6.50;;;;;20.66;50.73;101170.78;5077970;28;46338;-56
2022/08/28 08:31:25;;;;;;;;;8.50;6.00;;;;;20.74;50.97;101172.94;5082212;27;45836;-56
2022/08/28 08:33:54;;;;;;;;;9.00;8.00;;;;;20.77;50.26;101177.19;5081392;27;45644;-57
2022/08/28 08:36:21;;;;;;;;;8.25;7.25;;;;;20.78;50.34;101181.59;5081957;27;45435;-56
2022/08/28 08:38:47;;;;;;;;;8.00;7.50;;;;;20.82;50.67;101177.78;5049448;28;46325;-57
2022/08/28 08:41:24;;;;;;;;;11.00;9.00;;;;;20.88;50.10;101182.72;5055770;28;46032;-58
2022/08/28 08:44:07;;;;;;;;;10.75;8.00;;;;;20.94;50.04;101184.13;5077416;28;45440;-56
2022/08/28 08:46:41;;;;;;;;;15.50;12.25;;;;;21.00;49.92;101179.28;5067747;28;45492;-57
2022/08/28 08:49:14;;;;;;;;;11.25;8.50;;;;;21.11;49.85;101180.41;5049952;28;46423;-57
2022/08/28 08:51:54;;;;;;;;;10.50;9.00;;;;;21.15;49.98;101172.09;5043600;28;46076;-57
2022/08/28 08:54:20;;;;;;;;;9.75;8.75;;;;;21.21;49.82;101174.38;5075679;28;45398;-57
2022/08/28 08:56:46;;;;;;;;;9.50;8.50;;;;;21.26;49.39;101174.06;5080268;28;45303;-57
2022/08/28 08:59:17;;;;;;;;;19.50;17.50;;;;;21.33;49.31;101167.38;5053267;28;45439;-57
2022/08/28 09:01:55;;;;;;;;;11.75;9.00;;;;;21.42;49.12;101163.28;5062422;28;45705;-57
2022/08/28 09:04:52;;;;;;;;;17.25;14.25;;;;;21.51;49.29;101169.84;5057650;27;45273;-57
2022/08/28 09:07:22;;;;;;;;;11.25;8.00;;;;;21.59;48.83;101168.38;5055498;28;45473;-57
2022/08/28 09:09:51;;;;;;;;;11.00;8.00;;;;;21.65;48.66;101164.44;5072971;28;47277;-57
2022/08/28 09:12:21;;;;;;;;;11.25;8.75;;;;;21.72;48.88;101170.22;5071784;28;45453;-58
2022/08/28 09:14:52;;;;;;;;;10.00;6.75;;;;;21.78;48.74;101169.81;5075170;27;45312;-57
2022/08/28 09:17:20;;;;;;;;;7.00;5.00;;;;;21.82;48.08;101173.97;5080288;27;45368;-56
2022/08/28 09:19:46;;;;;;;;;12.50;9.50;;;;;21.85;48.03;101167.56;5069465;27;47103;-55
2022/08/28 09:22:11;;;;;;;;;11.00;8.00;;;;;21.89;48.28;101158.44;5053927;28;45995;-53
2022/08/28 09:24:38;;;;;;;;;10.00;7.25;;;;;21.92;48.28;101164.41;5080068;27;45426;-54
2022/08/28 09:27:24;;;;;;;;;9.50;9.25;;;;;21.98;47.87;101166.63;5058548;28;45538;-56
2022/08/28 09:29:57;;;;;;;;;18.00;12.50;;;;;22.04;48.20;101168.03;5076377;27;46138;-55
2022/08/28 09:32:33;;;;;;;;;13.50;9.50;;;;;22.09;47.72;101170.38;5032915;28;45691;-55
2022/08/28 09:35:08;;;;;;;;;8.00;8.00;;;;;22.14;47.67;101168.25;5056508;28;45262;-56
2022/08/28 09:37:34;;;;;;;;;12.25;9.50;;;;;22.18;47.07;101167.09;5051330;28;45588;-56
2022/08/28 09:40:20;;;;;;;;;10.75;10.00;;;;;22.23;47.30;101172.94;5060983;27;47121;-55
2022/08/28 09:43:28;;;;;;;;;16.50;11.50;;;;;22.29;47.47;101163.69;5073298;27;45785;-54
2022/08/28 09:46:19;;;;;;;;;10.00;9.50;;;;;22.34;47.05;101159.75;5052235;28;45335;-55
2022/08/28 09:48:46;;;;;;;;;10.75;10.25;;;;;22.41;46.78;101162.00;5068488;28;45454;-55
2022/08/28 09:51:24;;;;;;;;;10.75;10.50;;;;;22.48;47.05;101161.44;5054783;28;46188;-54
2022/08/28 09:53:55;;;;;;;;;9.75;9.50;;;;;22.52;46.88;101154.09;5074458;27;45918;-56
2022/08/28 09:56:34;;;;;;;;;12.50;12.25;;;;;22.56;46.23;101158.25;5079076;27;45502;-57
2022/08/28 09:59:08;;;;;;;;;12.25;11.00;;;;;22.60;46.88;101149.06;5072010;27;45435;-57
2022/08/28 10:01:48;;;;;;;;;14.25;9.25;;;;;22.67;46.69;101157.50;5049633;28;45528;-56
2022/08/28 10:04:30;;;;;;;;;12.50;11.50;;;;;22.75;46.28;101147.09;5050054;28;45678;-57
2022/08/28 10:07:17;;;;;;;;;11.50;8.00;;;;;22.82;46.24;101158.19;5052220;28;45448;-56
2022/08/28 10:10:10;;;;;;;;;13.25;11.00;;;;;22.89;46.29;101143.44;5070446;28;46106;-56
2022/08/28 10:13:13;;;;;;;;;13.00;10.00;;;;;23.01;45.64;101145.22;5073390;27;45419;-56
2022/08/28 10:15:44;;;;;;;;;12.00;6.25;;;;;23.12;45.97;101140.00;5074862;27;45722;-56
2022/08/28 10:18:21;;;;;;;;;12.75;9.50;;;;;23.20;45.69;101144.78;5085913;27;45574;-56
2022/08/28 10:21:02;;;;;;;;;13.75;10.00;;;;;23.29;45.26;101136.06;5079195;27;45454;-55
2022/08/28 10:23:42;;;;;;;;;9.00;8.00;;;;;23.41;45.51;101145.00;5056150;28;46569;-56
2022/08/28 10:26:20;;;;;;;;;12.25;11.00;;;;;23.49;44.54;101150.59;5072864;28;45804;-54
2022/08/28 10:29:07;;;;;;;;;14.25;9.25;;;;;23.56;44.36;101136.78;5064093;27;45466;-56
2022/08/28 10:31:44;;;;;;;;;12.25;11.25;;;;;23.60;44.72;101144.47;5071110;27;45519;-56
2022/08/28 10:34:27;;;;;;;;;7.75;7.00;;;;;23.64;44.36;101139.75;5086789;27;46215;-56
2022/08/28 10:37:18;;;;;;;;;8.75;8.75;;;;;23.71;43.92;101140.97;5068706;28;45481;-56
2022/08/28 10:40:03;;;;;;;;;9.75;8.50;;;;;23.77;43.80;101137.81;5062184;28;45334;-56
2022/08/28 10:42:53;;;;;;;;;11.25;9.00;;;;;23.82;43.68;101130.34;5051738;28;45494;-56
2022/08/28 10:45:22;;;;;;;;;5.75;5.50;;;;;23.90;44.00;101134.25;5045636;28;45400;-56
2022/08/28 10:47:52;;;;;;;;;10.75;8.25;;;;;23.97;43.44;101136.31;5057621;27;47133;-56
2022/08/28 10:50:24;;;;;;;;;9.25;6.25;;;;;24.04;42.92;101136.69;5034775;28;45641;-57
2022/08/28 10:53:06;;;;;;;;;10.25;8.75;;;;;24.10;43.41;101138.91;5039847;28;46338;-57
2022/08/28 10:55:53;;;;;;;;;11.00;8.25;;;;;24.18;43.24;101143.66;5039624;28;46859;-57
2022/08/28 10:58:19;;;;;;;;;11.75;6.75;;;;;24.22;43.00;101134.41;5073162;28;45654;-58
2022/08/28 11:00:45;;;;;;;;;9.75;7.25;;;;;24.25;43.23;101140.38;5057290;28;65222;-57
2022/08/28 11:03:13;;;;;;;;;9.00;6.00;;;;;24.30;43.69;101136.50;5075620;28;45250;-56
2022/08/28 11:05:51;;;;;;;;;8.00;7.50;;;;;24.36;43.21;101131.50;5051960;28;45350;-61
2022/08/28 11:08:25;;;;;;;;;22.50;20.00;;;;;24.42;43.17;101144.41;5053931;28;45648;-61
2022/08/28 11:10:52;;;;;;;;;13.75;10.75;;;;;24.44;43.15;101138.94;5076001;28;45471;-61
2022/08/28 11:13:45;;;;;;;;;8.75;7.25;;;;;24.46;42.83;101128.97;5070683;27;45479;-62
2022/08/28 11:16:20;;;;;;;;;13.00;8.00;;;;;24.42;43.00;101125.69;5071253;28;47337;-61
2022/08/28 11:18:58;;;;;;;;;9.75;7.00;;;;;24.41;42.65;101131.16;5066652;28;45427;-60
2022/08/28 11:21:27;;;;;;;;;8.00;5.00;;;;;24.41;42.89;101123.97;5036884;28;45408;-60
2022/08/28 11:23:58;;;;;;;;;6.50;6.50;;;;;24.49;43.25;101128.72;5058981;28;47638;-59
2022/08/28 11:26:51;;;;;;;;;10.50;7.00;;;;;24.58;42.68;101122.66;5036938;28;46737;-61
2022/08/28 11:29:54;;;;;;;;;9.75;8.00;;;;;24.61;42.84;101132.25;5053126;28;45565;-60
2022/08/28 11:32:39;;;;;;;;;6.50;6.00;;;;;24.60;42.59;101127.91;5068396;28;45296;-61
2022/08/28 11:35:44;;;;;;;;;11.50;7.75;;;;;24.60;42.52;101120.72;5053392;28;45644;-61
2022/08/28 11:38:10;;;;;;;;;9.00;8.50;;;;;24.61;42.14;101122.41;5048873;28;47121;-61